Time;durP1;ratioP1;P1;durP2;ratioP2;P2;SDS_P1;SDS_P2;PMS_P1;PMS_P2;Temp;Humidity;BMP_temperature;BMP_pressure;BME280_temperature;BME280_humidity;BME280_pressure;Samples;Min_cycle;Max_cycle;Signal;HPM_P1;HPM_P2
2021/01/11 00:02:17;;;;;;;;;;;;;;;;;;5062572;28;20006;-60
2021/01/11 00:04:43;;;;;;;;;;;;;;;;;;5042049;28;19913;-60
2021/01/11 00:07:09;;;;;;;;;;;;;;;;;;5051558;28;19971;-59
2021/01/11 00:09:35;;;;;;;;;;;;;;;;;;5045009;28;20504;-60
2021/01/11 00:12:01;;;;;;;;;;;;;;;;;;5045517;28;19917;-60
2021/01/11 00:14:27;;;;;;;;;;;;;;;;;;5051730;28;19916;-60
2021/01/11 00:16:52;;;;;;;;;;;;;;;;;;5043031;28;19923;-60
2021/01/11 00:19:21;;;;;;;;;;;;;;;;;;5049580;28;19924;-60
2021/01/11 00:21:47;;;;;;;;;;;;;;;;;;5047658;28;19986;-61
2021/01/11 00:24:13;;;;;;;;;;;;;;;;;;5049148;28;20440;-61
2021/01/11 00:26:39;;;;;;;;;;;;;;;;;;5049034;28;19960;-60
2021/01/11 00:29:04;;;;;;;;;;;;;;;;;;5041637;28;19916;-60
2021/01/11 00:31:30;;;;;;;;;;;;;;;;;;5049636;28;19921;-60
2021/01/11 00:33:56;;;;;;;;;;;;;;;;;;5047229;28;19965;-61
2021/01/11 00:36:22;;;;;;;;;;;;;;;;;;5047081;28;20461;-60
2021/01/11 00:38:48;;;;;;;;;;;;;;;;;;5051951;28;19955;-60
2021/01/11 00:41:14;;;;;;;;;;;;;;;;;;5040043;28;19970;-61
2021/01/11 00:43:40;;;;;;;;;;;;;;;;;;5045945;28;20335;-59
2021/01/11 00:46:06;;;;;;;;;;;;;;;;;;5044664;28;19956;-60
2021/01/11 00:48:32;;;;;;;;;;;;;;;;;;5043987;28;19921;-60
2021/01/11 00:50:58;;;;;;;;;;;;;;;;;;5051753;28;19942;-60
2021/01/11 00:53:23;;;;;;;;;;;;;;;;;;5040354;28;20056;-60
2021/01/11 00:55:49;;;;;;;;;;;;;;;;;;5048503;28;20446;-60
2021/01/11 00:58:15;;;;;;;;;;;;;;;;;;5047543;28;20003;-60
2021/01/11 01:00:41;;;;;;;;;;;;;;;;;;5040019;28;19920;-60
2021/01/11 01:03:07;;;;;;;;;;;;;;;;;;5047334;28;20013;-61
2021/01/11 01:05:33;;;;;;;;;;;;;;;;;;5037595;28;20357;-60
2021/01/11 01:07:59;;;;;;;;;;;;;;;;;;5048834;28;19920;-60
2021/01/11 01:10:25;;;;;;;;;;;;;;;;;;5044431;28;19967;-60
2021/01/11 01:12:51;;;;;;;;;;;;;;;;;;5045110;28;19916;-60
2021/01/11 01:15:16;;;;;;;;;;;;;;;;;;5061090;28;19992;-60
2021/01/11 01:17:42;;;;;;;;;;;;;;;;;;5042921;28;20642;-60
2021/01/11 01:20:15;;;;;;;;;;;;;;;;;;5047558;28;19943;-60
2021/01/11 01:22:40;;;;;;;;;;;;;;;;;;5047520;28;20266;-61
2021/01/11 01:25:06;;;;;;;;;;;;;;;;;;5042125;28;19931;-60
2021/01/11 01:27:32;;;;;;;;;;;;;;;;;;5051530;28;19928;-60
2021/01/11 01:29:58;;;;;;;;;;;;;;;;;;5039676;28;19996;-61
2021/01/11 01:32:24;;;;;;;;;;;;;;;;;;5047498;28;20011;-60
2021/01/11 01:34:50;;;;;;;;;;;;;;;;;;5043371;28;19920;-60
2021/01/11 01:37:16;;;;;;;;;;;;;;;;;;5040749;28;19923;-60
2021/01/11 01:39:42;;;;;;;;;;;;;;;;;;5048626;28;20131;-60
2021/01/11 01:42:08;;;;;;;;;;;;;;;;;;5042339;28;19924;-59
2021/01/11 01:44:33;;;;;;;;;;;;;;;;;;5046497;28;19917;-61
2021/01/11 01:46:59;;;;;;;;;;;;;;;;;;5049986;28;20031;-60
2021/01/11 01:49:25;;;;;;;;;;;;;;;;;;5042993;28;20365;-60
2021/01/11 01:51:51;;;;;;;;;;;;;;;;;;5048629;28;19916;-61
2021/01/11 01:54:17;;;;;;;;;;;;;;;;;;5044655;28;19924;-60
2021/01/11 01:56:43;;;;;;;;;;;;;;;;;;5046240;28;19963;-61
2021/01/11 01:59:09;;;;;;;;;;;;;;;;;;5046031;28;19927;-60
2021/01/11 02:01:35;;;;;;;;;;;;;;;;;;5042707;28;19913;-61
2021/01/11 02:04:01;;;;;;;;;;;;;;;;;;5048474;28;19990;-61
2021/01/11 02:06:34;;;;;;;;;;;;;;;;;;5046157;28;19970;-61
2021/01/11 02:09:00;;;;;;;;;;;;;;;;;;5040275;28;19974;-61
2021/01/11 02:11:26;;;;;;;;;;;;;;;;;;5076580;28;19940;-60
2021/01/11 02:13:52;;;;;;;;;;;;;;;;;;5038660;28;20484;-61
2021/01/11 02:16:18;;;;;;;;;;;;;;;;;;5047427;28;19921;-60
2021/01/11 02:18:44;;;;;;;;;;;;;;;;;;5044604;28;20466;-61
2021/01/11 02:21:10;;;;;;;;;;;;;;;;;;5042551;28;19925;-60
2021/01/11 02:23:36;;;;;;;;;;;;;;;;;;5048552;28;19967;-60
2021/01/11 02:26:02;;;;;;;;;;;;;;;;;;5042010;28;19944;-60
2021/01/11 02:28:28;;;;;;;;;;;;;;;;;;5047428;28;20280;-60
2021/01/11 02:30:54;;;;;;;;;;;;;;;;;;5044120;28;19922;-60
2021/01/11 02:33:20;;;;;;;;;;;;;;;;;;5042302;28;19917;-60
2021/01/11 02:35:46;;;;;;;;;;;;;;;;;;5048939;28;20526;-60
2021/01/11 02:38:12;;;;;;;;;;;;;;;;;;5036833;28;19999;-60
2021/01/11 02:40:38;;;;;;;;;;;;;;;;;;5048582;28;19920;-60
2021/01/11 02:43:04;;;;;;;;;;;;;;;;;;5043659;28;19931;-60
2021/01/11 02:45:29;;;;;;;;;;;;;;;;;;5042332;28;20357;-60
2021/01/11 02:47:55;;;;;;;;;;;;;;;;;;5047667;28;19962;-60
2021/01/11 02:50:21;;;;;;;;;;;;;;;;;;5039419;28;19916;-60
2021/01/11 02:52:47;;;;;;;;;;;;;;;;;;5051946;28;19939;-59
2021/01/11 02:55:13;;;;;;;;;;;;;;;;;;5044703;28;19916;-60
2021/01/11 02:57:39;;;;;;;;;;;;;;;;;;5034875;28;20343;-60
2021/01/11 03:00:05;;;;;;;;;;;;;;;;;;5062343;28;19956;-60
2021/01/11 03:02:31;;;;;;;;;;;;;;;;;;5038481;28;20311;-60
2021/01/11 03:04:57;;;;;;;;;;;;;;;;;;5047704;28;19921;-60
2021/01/11 03:07:23;;;;;;;;;;;;;;;;;;5045374;28;19916;-60
2021/01/11 03:09:49;;;;;;;;;;;;;;;;;;5045043;28;19917;-60
2021/01/11 03:12:15;;;;;;;;;;;;;;;;;;5049978;28;19917;-60
2021/01/11 03:14:41;;;;;;;;;;;;;;;;;;5043717;28;19924;-60
2021/01/11 03:17:07;;;;;;;;;;;;;;;;;;5051878;28;19913;-60
2021/01/11 03:19:33;;;;;;;;;;;;;;;;;;5047873;28;20382;-60
2021/01/11 03:21:59;;;;;;;;;;;;;;;;;;5043696;28;19956;-60
2021/01/11 03:24:25;;;;;;;;;;;;;;;;;;5068774;28;20563;-60
2021/01/11 03:26:51;;;;;;;;;;;;;;;;;;5041562;28;19917;-60
2021/01/11 03:29:17;;;;;;;;;;;;;;;;;;5052539;28;19916;-60
2021/01/11 03:31:43;;;;;;;;;;;;;;;;;;5051281;28;19920;-60
2021/01/11 03:34:09;;;;;;;;;;;;;;;;;;5049234;28;19917;-60
2021/01/11 03:36:35;;;;;;;;;;;;;;;;;;5056776;28;19970;-60
2021/01/11 03:39:00;;;;;;;;;;;;;;;;;;5046619;28;20234;-60
2021/01/11 03:41:26;;;;;;;;;;;;;;;;;;5053728;28;20261;-60
2021/01/11 03:43:52;;;;;;;;;;;;;;;;;;5052512;28;19963;-61
2021/01/11 03:46:18;;;;;;;;;;;;;;;;;;5047477;28;19917;-60
2021/01/11 03:48:44;;;;;;;;;;;;;;;;;;5056993;28;20394;-60
2021/01/11 03:51:10;;;;;;;;;;;;;;;;;;5049167;28;19921;-60
2021/01/11 03:53:36;;;;;;;;;;;;;;;;;;5053030;28;19912;-61
2021/01/11 03:56:02;;;;;;;;;;;;;;;;;;5052980;28;19977;-60
2021/01/11 03:58:28;;;;;;;;;;;;;;;;;;5046913;28;19923;-60
2021/01/11 04:00:53;;;;;;;;;;;;;;;;;;5054944;28;19922;-61
2021/01/11 04:03:19;;;;;;;;;;;;;;;;;;5043222;28;20383;-61
2021/01/11 04:05:45;;;;;;;;;;;;;;;;;;5055516;28;19913;-60
2021/01/11 04:08:11;;;;;;;;;;;;;;;;;;5042024;28;20422;-61
2021/01/11 04:10:37;;;;;;;;;;;;;;;;;;5043976;28;19921;-60
2021/01/11 04:13:03;;;;;;;;;;;;;;;;;;5044781;28;19936;-60
2021/01/11 04:15:29;;;;;;;;;;;;;;;;;;5042545;28;20657;-60
2021/01/11 04:17:55;;;;;;;;;;;;;;;;;;5048261;28;20364;-61
2021/01/11 04:20:21;;;;;;;;;;;;;;;;;;5044517;28;19997;-60
2021/01/11 04:22:46;;;;;;;;;;;;;;;;;;5041131;28;20000;-61
2021/01/11 04:25:12;;;;;;;;;;;;;;;;;;5045856;28;20548;-61
2021/01/11 04:27:41;;;;;;;;;;;;;;;;;;5040496;28;19931;-60
2021/01/11 04:30:13;;;;;;;;;;;;;;;;;;5044178;28;19952;-60
2021/01/11 04:32:39;;;;;;;;;;;;;;;;;;5046235;28;19920;-60
2021/01/11 04:35:05;;;;;;;;;;;;;;;;;;5038875;28;20459;-61
2021/01/11 04:37:33;;;;;;;;;;;;;;;;;;5026087;28;20204;-60
2021/01/11 04:39:59;;;;;;;;;;;;;;;;;;5043616;28;20062;-60
2021/01/11 04:42:25;;;;;;;;;;;;;;;;;;5039445;28;19917;-60
2021/01/11 04:44:51;;;;;;;;;;;;;;;;;;5049605;28;19920;-61
2021/01/11 04:47:17;;;;;;;;;;;;;;;;;;5041674;28;20475;-60
2021/01/11 04:49:42;;;;;;;;;;;;;;;;;;5044263;28;20051;-61
2021/01/11 04:52:08;;;;;;;;;;;;;;;;;;5044402;28;19917;-61
2021/01/11 04:54:34;;;;;;;;;;;;;;;;;;5042709;28;19916;-60
2021/01/11 04:57:00;;;;;;;;;;;;;;;;;;5061085;28;19947;-60
2021/01/11 04:59:26;;;;;;;;;;;;;;;;;;5038394;28;19928;-60
2021/01/11 05:01:52;;;;;;;;;;;;;;;;;;5042982;28;19955;-60
2021/01/11 05:04:18;;;;;;;;;;;;;;;;;;5044894;28;19928;-61
2021/01/11 05:06:44;;;;;;;;;;;;;;;;;;5042743;28;19948;-60
2021/01/11 05:09:13;;;;;;;;;;;;;;;;;;5047470;28;19920;-60
2021/01/11 05:11:39;;;;;;;;;;;;;;;;;;5040147;28;19920;-60
2021/01/11 05:14:05;;;;;;;;;;;;;;;;;;5045981;28;20762;-60
2021/01/11 05:16:31;;;;;;;;;;;;;;;;;;5042400;28;19944;-60
2021/01/11 05:19:01;;;;;;;;;;;;;;;;;;5044831;28;20380;-61
2021/01/11 05:21:27;;;;;;;;;;;;;;;;;;5048835;28;20483;-61
2021/01/11 05:23:53;;;;;;;;;;;;;;;;;;5041438;28;19924;-62
2021/01/11 05:26:20;;;;;;;;;;;;;;;;;;5045706;28;19931;-60
2021/01/11 05:28:49;;;;;;;;;;;;;;;;;;5048642;28;20714;-61
2021/01/11 05:31:15;;;;;;;;;;;;;;;;;;5041660;28;19913;-61
2021/01/11 05:33:41;;;;;;;;;;;;;;;;;;5049856;28;20450;-61
2021/01/11 05:36:07;;;;;;;;;;;;;;;;;;5040849;28;19920;-61
2021/01/11 05:38:32;;;;;;;;;;;;;;;;;;5045973;28;19921;-61
2021/01/11 05:40:58;;;;;;;;;;;;;;;;;;5046238;28;19996;-61
2021/01/11 05:43:24;;;;;;;;;;;;;;;;;;5044426;28;19917;-60
2021/01/11 05:46:08;;;;;;;;;;;;;;;;;;5046948;28;19924;-61
2021/01/11 05:48:34;;;;;;;;;;;;;;;;;;5045572;28;20345;-61
2021/01/11 05:51:00;;;;;;;;;;;;;;;;;;5041412;28;19996;-61
2021/01/11 05:53:33;;;;;;;;;;;;;;;;;;5052756;28;19958;-60
2021/01/11 05:56:07;;;;;;;;;;;;;;;;;;5038756;28;20568;-60
2021/01/11 05:58:33;;;;;;;;;;;;;;;;;;5045138;28;20008;-60
2021/01/11 06:01:02;;;;;;;;;;;;;;;;;;5040197;28;20693;-60
2021/01/11 06:03:40;;;;;;;;;;;;;;;;;;5040377;28;19921;-61
2021/01/11 06:06:09;;;;;;;;;;;;;;;;;;5050016;28;19913;-61
2021/01/11 06:08:36;;;;;;;;;;;;;;;;;;5041607;28;19966;-61
2021/01/11 06:11:12;;;;;;;;;;;;;;;;;;5037607;28;19947;-60
2021/01/11 06:13:39;;;;;;;;;;;;;;;;;;5050821;28;20384;-60
2021/01/11 06:16:09;;;;;;;;;;;;;;;;;;5040974;28;19960;-60
2021/01/11 06:18:44;;;;;;;;;;;;;;;;;;5045593;28;19963;-61
2021/01/11 06:21:11;;;;;;;;;;;;;;;;;;5034421;28;19944;-60
2021/01/11 06:23:38;;;;;;;;;;;;;;;;;;5035464;28;19996;-60
2021/01/11 06:26:06;;;;;;;;;;;;;;;;;;5046975;28;19919;-61
2021/01/11 06:28:37;;;;;;;;;;;;;;;;;;5043875;28;19944;-60
2021/01/11 06:31:04;;;;;;;;;;;;;;;;;;5046417;28;20312;-60
2021/01/11 06:33:50;;;;;;;;;;;;;;;;;;5049894;28;19913;-61
2021/01/11 06:36:16;;;;;;;;;;;;;;;;;;5034458;28;19947;-60
2021/01/11 06:38:42;;;;;;;;;;;;;;;;;;5046301;28;20534;-60
2021/01/11 06:41:09;;;;;;;;;;;;;;;;;;5040547;28;19951;-60
2021/01/11 06:43:35;;;;;;;;;;;;;;;;;;5040017;28;20369;-61
2021/01/11 06:46:01;;;;;;;;;;;;;;;;;;5050974;28;19921;-60
2021/01/11 06:48:27;;;;;;;;;;;;;;;;;;5038511;28;19956;-59
2021/01/11 06:51:01;;;;;;;;;;;;;;;;;;5048768;28;19928;-60
2021/01/11 06:53:27;;;;;;;;;;;;;;;;;;5044271;28;20579;-60
2021/01/11 06:55:52;;;;;;;;;;;;;;;;;;5039861;28;19920;-60
2021/01/11 06:58:19;;;;;;;;;;;;;;;;;;5048053;28;19927;-60
2021/01/11 07:00:52;;;;;;;;;;;;;;;;;;5042803;28;20314;-60
2021/01/11 07:03:18;;;;;;;;;;;;;;;;;;5042361;28;19924;-60
2021/01/11 07:05:47;;;;;;;;;;;;;;;;;;5085570;28;19916;-60
2021/01/11 07:08:15;;;;;;;;;;;;;;;;;;5034921;28;19929;-60
2021/01/11 07:10:41;;;;;;;;;;;;;;;;;;5046979;28;19913;-60
2021/01/11 07:13:07;;;;;;;;;;;;;;;;;;5035526;28;19973;-60
2021/01/11 07:15:33;;;;;;;;;;;;;;;;;;5043351;28;19913;-60
2021/01/11 07:17:59;;;;;;;;;;;;;;;;;;5046839;28;20061;-60
2021/01/11 07:20:25;;;;;;;;;;;;;;;;;;5041648;28;19916;-60
2021/01/11 07:23:01;;;;;;;;;;;;;;;;;;5049978;28;19975;-60
2021/01/11 07:25:27;;;;;;;;;;;;;;;;;;5041935;28;20011;-60
2021/01/11 07:27:53;;;;;;;;;;;;;;;;;;5043333;28;20529;-60
2021/01/11 07:30:18;;;;;;;;;;;;;;;;;;5046010;28;19920;-60
2021/01/11 07:32:44;;;;;;;;;;;;;;;;;;5038025;28;19917;-59
2021/01/11 07:35:10;;;;;;;;;;;;;;;;;;5049412;28;19917;-59
2021/01/11 07:37:36;;;;;;;;;;;;;;;;;;5058090;28;19939;-60
2021/01/11 07:40:02;;;;;;;;;;;;;;;;;;5040567;28;20368;-60
2021/01/11 07:42:28;;;;;;;;;;;;;;;;;;5056844;28;19939;-59
2021/01/11 07:44:54;;;;;;;;;;;;;;;;;;5039981;28;19928;-60
2021/01/11 07:47:20;;;;;;;;;;;;;;;;;;5039826;28;19974;-60
2021/01/11 07:49:53;;;;;;;;;;;;;;;;;;5044350;28;19917;-60
2021/01/11 07:52:21;;;;;;;;;;;;;;;;;;5038667;28;19921;-61
2021/01/11 07:54:46;;;;;;;;;;;;;;;;;;5049048;28;19924;-61
2021/01/11 07:57:12;;;;;;;;;;;;;;;;;;5042750;28;19917;-61
2021/01/11 07:59:38;;;;;;;;;;;;;;;;;;5048093;28;19951;-60
2021/01/11 08:02:04;;;;;;;;;;;;;;;;;;5044744;28;20360;-60
2021/01/11 08:04:30;;;;;;;;;;;;;;;;;;5044435;28;19917;-60
2021/01/11 08:06:56;;;;;;;;;;;;;;;;;;5049083;28;19924;-60
2021/01/11 08:09:22;;;;;;;;;;;;;;;;;;5040374;28;19917;-60
2021/01/11 08:11:48;;;;;;;;;;;;;;;;;;5043058;28;19923;-60
2021/01/11 08:14:14;;;;;;;;;;;;;;;;;;5074251;28;19917;-60
2021/01/11 08:16:41;;;;;;;;;;;;;;;;;;5047736;28;20441;-60
2021/01/11 08:19:16;;;;;;;;;;;;;;;;;;5046398;28;19916;-60
2021/01/11 08:21:42;;;;;;;;;;;;;;;;;;5043221;28;20384;-59
2021/01/11 08:24:08;;;;;;;;;;;;;;;;;;5043420;28;19920;-60
2021/01/11 08:26:34;;;;;;;;;;;;;;;;;;5063212;28;19978;-62
2021/01/11 08:29:00;;;;;;;;;;;;;;;;;;5039718;28;19916;-61
2021/01/11 08:31:26;;;;;;;;;;;;;;;;;;5051789;28;19921;-61
2021/01/11 08:33:52;;;;;;;;;;;;;;;;;;5042476;28;19917;-61
2021/01/11 08:36:18;;;;;;;;;;;;;;;;;;5049514;28;20491;-60
2021/01/11 08:38:43;;;;;;;;;;;;;;;;;;5049282;28;20328;-60
2021/01/11 08:41:09;;;;;;;;;;;;;;;;;;5039899;28;19913;-63
2021/01/11 08:43:35;;;;;;;;;;;;;;;;;;5051853;28;19917;-63
2021/01/11 08:46:03;;;;;;;;;;;;;;;;;;5045998;28;19912;-62
2021/01/11 08:48:31;;;;;;;;;;;;;;;;;;5041583;28;20008;-62
2021/01/11 08:50:57;;;;;;;;;;;;;;;;;;5043376;28;19952;-62
2021/01/11 08:53:23;;;;;;;;;;;;;;;;;;5044574;28;20356;-62
2021/01/11 08:55:49;;;;;;;;;;;;;;;;;;5050608;28;19923;-62
2021/01/11 08:58:17;;;;;;;;;;;;;;;;;;5045079;28;19913;-62
2021/01/11 09:00:45;;;;;;;;;;;;;;;;;;5043088;28;19920;-62
2021/01/11 09:03:11;;;;;;;;;;;;;;;;;;5051403;28;20536;-61
2021/01/11 09:05:37;;;;;;;;;;;;;;;;;;5042281;28;19921;-62
2021/01/11 09:08:03;;;;;;;;;;;;;;;;;;5050422;28;20748;-62
2021/01/11 09:10:33;;;;;;;;;;;;;;;;;;5042858;28;19917;-61
2021/01/11 09:12:59;;;;;;;;;;;;;;;;;;5044157;28;20245;-61
2021/01/11 09:15:25;;;;;;;;;;;;;;;;;;5053593;28;19916;-62
2021/01/11 09:17:51;;;;;;;;;;;;;;;;;;5040505;28;19924;-62
2021/01/11 09:20:16;;;;;;;;;;;;;;;;;;5049337;28;20415;-63
2021/01/11 09:22:42;;;;;;;;;;;;;;;;;;5043442;28;20042;-62
2021/01/11 09:25:08;;;;;;;;;;;;;;;;;;5043571;28;19921;-62
2021/01/11 09:27:36;;;;;;;;;;;;;;;;;;5049922;28;19921;-64
2021/01/11 09:30:02;;;;;;;;;;;;;;;;;;5040910;28;19931;-63
2021/01/11 09:32:28;;;;;;;;;;;;;;;;;;5047973;28;19917;-63
2021/01/11 09:34:54;;;;;;;;;;;;;;;;;;5046748;28;19921;-62
2021/01/11 09:37:25;;;;;;;;;;;;;;;;;;5045829;28;19919;-63
2021/01/11 09:40:00;;;;;;;;;;;;;;;;;;5055789;28;19928;-62
2021/01/11 09:42:30;;;;;;;;;;;;;;;;;;5047038;28;19938;-64
2021/01/11 09:45:00;;;;;;;;;;;;;;;;;;5044469;28;19986;-63
2021/01/11 09:47:26;;;;;;;;;;;;;;;;;;5049399;28;19921;-62
2021/01/11 09:49:55;;;;;;;;;;;;;;;;;;5041812;28;19943;-62
2021/01/11 09:52:24;;;;;;;;;;;;;;;;;;5050732;28;19913;-63
2021/01/11 09:54:59;;;;;;;;;;;;;;;;;;5042709;28;19917;-61
2021/01/11 09:57:28;;;;;;;;;;;;;;;;;;5044760;28;19947;-62
2021/01/11 09:59:54;;;;;;;;;;;;;;;;;;5047993;28;20302;-62
2021/01/11 10:02:20;;;;;;;;;;;;;;;;;;5032377;28;19964;-62
2021/01/11 10:04:47;;;;;;;;;;;;;;;;;;5044013;28;20000;-63
2021/01/11 10:07:18;;;;;;;;;;;;;;;;;;5067383;28;19924;-63
2021/01/11 10:09:48;;;;;;;;;;;;;;;;;;5039151;28;20350;-63
2021/01/11 10:12:19;;;;;;;;;;;;;;;;;;5045542;28;19917;-62
2021/01/11 10:14:51;;;;;;;;;;;;;;;;;;5043944;28;20548;-63
2021/01/11 10:17:20;;;;;;;;;;;;;;;;;;5046365;28;19916;-62
2021/01/11 10:19:50;;;;;;;;;;;;;;;;;;5055488;28;20275;-64
2021/01/11 10:22:17;;;;;;;;;;;;;;;;;;5042273;28;19916;-63
2021/01/11 10:24:50;;;;;;;;;;;;;;;;;;5037140;28;20403;-64
2021/01/11 10:27:16;;;;;;;;;;;;;;;;;;5044540;28;19916;-62
2021/01/11 10:29:42;;;;;;;;;;;;;;;;;;5031601;28;20257;-65
2021/01/11 10:32:07;;;;;;;;;;;;;;;;;;5047296;28;19916;-63
2021/01/11 10:34:33;;;;;;;;;;;;;;;;;;5035338;28;20009;-63
2021/01/11 10:37:01;;;;;;;;;;;;;;;;;;5041178;28;19923;-62
2021/01/11 10:39:47;;;;;;;;;;;;;;;;;;5041793;28;19908;-63
2021/01/11 10:42:20;;;;;;;;;;;;;;;;;;5035557;28;20242;-65
2021/01/11 10:44:46;;;;;;;;;;;;;;;;;;5044302;28;19917;-65
2021/01/11 10:47:23;;;;;;;;;;;;;;;;;;5040261;28;19943;-62
2021/01/11 10:49:49;;;;;;;;;;;;;;;;;;5040077;28;19956;-65
2021/01/11 10:52:19;;;;;;;;;;;;;;;;;;5049394;28;20368;-64
2021/01/11 10:54:45;;;;;;;;;;;;;;;;;;5036972;28;20008;-61
2021/01/11 10:57:11;;;;;;;;;;;;;;;;;;5041589;28;19921;-64
2021/01/11 10:59:37;;;;;;;;;;;;;;;;;;5043445;28;20549;-63
2021/01/11 11:02:03;;;;;;;;;;;;;;;;;;5034905;28;19980;-63
2021/01/11 11:04:29;;;;;;;;;;;;;;;;;;5043278;28;19920;-64
2021/01/11 11:06:55;;;;;;;;;;;;;;;;;;5041024;28;20419;-61
2021/01/11 11:09:20;;;;;;;;;;;;;;;;;;5039178;28;19916;-63
2021/01/11 11:11:46;;;;;;;;;;;;;;;;;;5038095;28;19940;-62
2021/01/11 11:14:12;;;;;;;;;;;;;;;;;;5034386;28;20422;-64
2021/01/11 11:16:38;;;;;;;;;;;;;;;;;;5039190;28;20188;-63
2021/01/11 11:19:07;;;;;;;;;;;;;;;;;;5034757;28;20811;-63
2021/01/11 11:21:33;;;;;;;;;;;;;;;;;;5038004;28;19943;-63
2021/01/11 11:23:58;;;;;;;;;;;;;;;;;;5040430;28;19917;-64
2021/01/11 11:26:28;;;;;;;;;;;;;;;;;;5039500;28;19921;-63
2021/01/11 11:28:54;;;;;;;;;;;;;;;;;;5046788;28;19917;-64
2021/01/11 11:31:21;;;;;;;;;;;;;;;;;;5042082;28;20379;-64
2021/01/11 11:33:47;;;;;;;;;;;;;;;;;;5037704;28;19940;-65
2021/01/11 11:36:12;;;;;;;;;;;;;;;;;;5043623;28;19925;-64
2021/01/11 11:38:38;;;;;;;;;;;;;;;;;;5036448;28;20548;-63
2021/01/11 11:41:04;;;;;;;;;;;;;;;;;;5044681;28;20583;-65
2021/01/11 11:43:30;;;;;;;;;;;;;;;;;;5036777;28;20365;-64
2021/01/11 11:45:56;;;;;;;;;;;;;;;;;;5043708;28;19960;-65
2021/01/11 11:48:22;;;;;;;;;;;;;;;;;;5044876;28;19942;-64
2021/01/11 11:50:48;;;;;;;;;;;;;;;;;;5040704;28;19966;-65
2021/01/11 11:53:14;;;;;;;;;;;;;;;;;;5063764;28;20553;-65
2021/01/11 11:55:40;;;;;;;;;;;;;;;;;;5044030;28;20516;-64
2021/01/11 11:58:06;;;;;;;;;;;;;;;;;;5046251;28;19921;-66
2021/01/11 12:00:32;;;;;;;;;;;;;;;;;;5040946;28;20006;-65
2021/01/11 12:02:58;;;;;;;;;;;;;;;;;;5040510;28;19920;-66
2021/01/11 12:05:24;;;;;;;;;;;;;;;;;;5047241;28;20016;-65
2021/01/11 12:07:50;;;;;;;;;;;;;;;;;;5046202;28;19920;-65
2021/01/11 12:10:16;;;;;;;;;;;;;;;;;;5044242;28;19955;-66
2021/01/11 12:12:44;;;;;;;;;;;;;;;;;;5067075;28;19917;-66
2021/01/11 12:15:10;;;;;;;;;;;;;;;;;;5044288;28;19921;-66
2021/01/11 12:17:36;;;;;;;;;;;;;;;;;;5048046;28;20845;-65
2021/01/11 12:20:02;;;;;;;;;;;;;;;;;;5046556;28;19920;-63
2021/01/11 12:22:28;;;;;;;;;;;;;;;;;;5044163;28;19927;-65
2021/01/11 12:24:54;;;;;;;;;;;;;;;;;;5054065;28;19916;-63
2021/01/11 12:27:19;;;;;;;;;;;;;;;;;;5040169;28;19921;-67
2021/01/11 12:29:45;;;;;;;;;;;;;;;;;;5048586;28;20002;-64
2021/01/11 12:32:13;;;;;;;;;;;;;;;;;;5050988;28;19913;-65
2021/01/11 12:34:39;;;;;;;;;;;;;;;;;;5042121;28;19932;-67
2021/01/11 12:37:05;;;;;;;;;;;;;;;;;;5051614;28;19913;-67
2021/01/11 12:39:31;;;;;;;;;;;;;;;;;;5041869;28;19923;-66
2021/01/11 12:41:57;;;;;;;;;;;;;;;;;;5049855;28;20458;-66
2021/01/11 12:44:23;;;;;;;;;;;;;;;;;;5043365;28;19908;-63
2021/01/11 12:46:53;;;;;;;;;;;;;;;;;;5039368;28;20365;-65
2021/01/11 12:49:19;;;;;;;;;;;;;;;;;;5054431;28;19928;-66
2021/01/11 12:51:44;;;;;;;;;;;;;;;;;;5041845;28;19921;-65
2021/01/11 12:54:10;;;;;;;;;;;;;;;;;;5048185;28;19944;-65
2021/01/11 12:56:36;;;;;;;;;;;;;;;;;;5046791;28;19916;-66
2021/01/11 12:59:02;;;;;;;;;;;;;;;;;;5043081;28;19917;-64
2021/01/11 13:01:28;;;;;;;;;;;;;;;;;;5053038;28;19997;-66
2021/01/11 13:03:54;;;;;;;;;;;;;;;;;;5039790;28;20634;-64
2021/01/11 13:06:20;;;;;;;;;;;;;;;;;;5052776;28;19924;-65
2021/01/11 13:08:46;;;;;;;;;;;;;;;;;;5051082;28;20249;-64
2021/01/11 13:11:12;;;;;;;;;;;;;;;;;;5038749;28;19951;-66
2021/01/11 13:13:38;;;;;;;;;;;;;;;;;;5060058;28;19912;-65
2021/01/11 13:16:04;;;;;;;;;;;;;;;;;;5041136;28;20003;-63
2021/01/11 13:18:30;;;;;;;;;;;;;;;;;;5038809;28;19983;-64
2021/01/11 13:20:55;;;;;;;;;;;;;;;;;;5049536;28;19913;-65
2021/01/11 13:23:21;;;;;;;;;;;;;;;;;;5036620;28;20376;-65
2021/01/11 13:25:47;;;;;;;;;;;;;;;;;;5047330;28;19917;-66
2021/01/11 13:28:13;;;;;;;;;;;;;;;;;;5040016;28;19959;-65
2021/01/11 13:30:42;;;;;;;;;;;;;;;;;;5044602;28;19952;-63
2021/01/11 13:33:08;;;;;;;;;;;;;;;;;;5047747;28;19917;-65
2021/01/11 13:35:34;;;;;;;;;;;;;;;;;;5041207;28;19928;-64
2021/01/11 13:38:01;;;;;;;;;;;;;;;;;;5049474;28;19917;-65
2021/01/11 13:40:27;;;;;;;;;;;;;;;;;;5054085;28;19935;-65
2021/01/11 13:42:53;;;;;;;;;;;;;;;;;;5043839;28;20035;-65
2021/01/11 13:45:19;;;;;;;;;;;;;;;;;;5038484;28;20521;-64
2021/01/11 13:47:48;;;;;;;;;;;;;;;;;;5038952;28;19971;-64
2021/01/11 13:50:14;;;;;;;;;;;;;;;;;;5042878;28;20076;-64
2021/01/11 13:52:39;;;;;;;;;;;;;;;;;;5052887;28;20442;-66
2021/01/11 13:55:05;;;;;;;;;;;;;;;;;;5034801;28;20071;-65
2021/01/11 13:57:31;;;;;;;;;;;;;;;;;;5045175;28;19924;-63
2021/01/11 13:59:57;;;;;;;;;;;;;;;;;;5041934;28;19916;-66
2021/01/11 14:02:23;;;;;;;;;;;;;;;;;;5045527;28;19966;-63
2021/01/11 14:04:50;;;;;;;;;;;;;;;;;;5030515;28;20028;-66
2021/01/11 14:07:16;;;;;;;;;;;;;;;;;;5033079;28;20239;-67
2021/01/11 14:09:42;;;;;;;;;;;;;;;;;;5051472;28;19917;-66
2021/01/11 14:12:08;;;;;;;;;;;;;;;;;;5035905;28;19921;-66
2021/01/11 14:14:37;;;;;;;;;;;;;;;;;;5048276;28;19951;-67
2021/01/11 14:17:03;;;;;;;;;;;;;;;;;;5040753;28;19917;-64
2021/01/11 14:19:29;;;;;;;;;;;;;;;;;;5043647;28;19951;-64
2021/01/11 14:21:56;;;;;;;;;;;;;;;;;;5048663;28;20408;-66
2021/01/11 14:24:22;;;;;;;;;;;;;;;;;;5039329;28;19924;-66
2021/01/11 14:26:47;;;;;;;;;;;;;;;;;;5041101;28;19921;-67
2021/01/11 14:29:15;;;;;;;;;;;;;;;;;;5057930;28;20339;-67
2021/01/11 14:31:41;;;;;;;;;;;;;;;;;;5038115;28;19936;-65
2021/01/11 14:34:07;;;;;;;;;;;;;;;;;;5042682;28;20704;-66
2021/01/11 14:36:33;;;;;;;;;;;;;;;;;;5041496;28;19931;-66
2021/01/11 14:39:01;;;;;;;;;;;;;;;;;;5041953;28;19923;-64
2021/01/11 14:41:27;;;;;;;;;;;;;;;;;;5059640;28;19959;-64
2021/01/11 14:43:53;;;;;;;;;;;;;;;;;;5040973;28;19960;-65
2021/01/11 14:46:23;;;;;;;;;;;;;;;;;;5049480;28;19916;-66
2021/01/11 14:48:49;;;;;;;;;;;;;;;;;;5043530;28;19916;-63
2021/01/11 14:51:15;;;;;;;;;;;;;;;;;;5036449;28;19917;-62
2021/01/11 14:53:41;;;;;;;;;;;;;;;;;;5044460;28;19923;-65
2021/01/11 14:56:09;;;;;;;;;;;;;;;;;;5036888;28;19916;-63
2021/01/11 14:58:35;;;;;;;;;;;;;;;;;;5079451;28;19982;-66
2021/01/11 15:01:04;;;;;;;;;;;;;;;;;;5039905;28;20367;-65
2021/01/11 15:03:31;;;;;;;;;;;;;;;;;;5042072;28;20307;-64
2021/01/11 15:05:56;;;;;;;;;;;;;;;;;;5045513;28;20593;-65
2021/01/11 15:08:22;;;;;;;;;;;;;;;;;;5039184;28;19920;-64
2021/01/11 15:10:51;;;;;;;;;;;;;;;;;;5044507;28;19912;-63
2021/01/11 15:13:17;;;;;;;;;;;;;;;;;;5047124;28;19920;-64
2021/01/11 15:15:45;;;;;;;;;;;;;;;;;;5044706;28;19917;-65
2021/01/11 15:18:12;;;;;;;;;;;;;;;;;;5036811;28;20378;-66
2021/01/11 15:20:38;;;;;;;;;;;;;;;;;;5040364;28;19927;-66
2021/01/11 15:23:04;;;;;;;;;;;;;;;;;;5043284;28;19920;-66
2021/01/11 15:25:30;;;;;;;;;;;;;;;;;;5049066;28;19944;-66
2021/01/11 15:28:03;;;;;;;;;;;;;;;;;;5040467;28;19916;-63
2021/01/11 15:30:29;;;;;;;;;;;;;;;;;;5049687;28;20710;-66
2021/01/11 15:32:55;;;;;;;;;;;;;;;;;;5043725;28;19923;-68
2021/01/11 15:35:28;;;;;;;;;;;;;;;;;;5049846;28;19925;-65
2021/01/11 15:38:01;;;;;;;;;;;;;;;;;;5051786;28;20015;-67
2021/01/11 15:40:27;;;;;;;;;;;;;;;;;;5045969;28;20548;-65
2021/01/11 15:42:54;;;;;;;;;;;;;;;;;;5040418;28;19936;-66
2021/01/11 15:45:20;;;;;;;;;;;;;;;;;;5045208;28;19927;-66
2021/01/11 15:47:53;;;;;;;;;;;;;;;;;;5048539;28;19960;-63
2021/01/11 15:50:19;;;;;;;;;;;;;;;;;;5042915;28;19974;-65
2021/01/11 15:52:45;;;;;;;;;;;;;;;;;;5043456;28;19916;-65
2021/01/11 15:55:11;;;;;;;;;;;;;;;;;;5047838;28;19913;-64
2021/01/11 15:57:44;;;;;;;;;;;;;;;;;;5049020;28;20536;-66
2021/01/11 16:00:10;;;;;;;;;;;;;;;;;;5046038;28;19917;-68
2021/01/11 16:02:36;;;;;;;;;;;;;;;;;;5051998;28;19928;-64
2021/01/11 16:05:02;;;;;;;;;;;;;;;;;;5043319;28;19999;-65
2021/01/11 16:07:28;;;;;;;;;;;;;;;;;;5046009;28;19920;-66
2021/01/11 16:09:54;;;;;;;;;;;;;;;;;;5042732;28;20383;-67
2021/01/11 16:12:20;;;;;;;;;;;;;;;;;;5039829;28;20436;-66
2021/01/11 16:14:46;;;;;;;;;;;;;;;;;;5045891;28;19916;-67
2021/01/11 16:17:12;;;;;;;;;;;;;;;;;;5043009;28;20518;-64
2021/01/11 16:19:38;;;;;;;;;;;;;;;;;;5043882;28;19925;-64
2021/01/11 16:22:03;;;;;;;;;;;;;;;;;;5043395;28;19924;-64
2021/01/11 16:24:37;;;;;;;;;;;;;;;;;;5044094;28;19991;-66
2021/01/11 16:27:06;;;;;;;;;;;;;;;;;;5048370;28;19916;-66
2021/01/11 16:29:32;;;;;;;;;;;;;;;;;;5045924;28;19920;-64
2021/01/11 16:32:06;;;;;;;;;;;;;;;;;;5039782;28;20632;-65
2021/01/11 16:34:35;;;;;;;;;;;;;;;;;;5044967;28;19921;-66
2021/01/11 16:37:01;;;;;;;;;;;;;;;;;;5035773;28;20433;-68
2021/01/11 16:39:27;;;;;;;;;;;;;;;;;;5040900;28;19962;-69
2021/01/11 16:41:53;;;;;;;;;;;;;;;;;;5048442;28;20007;-67
2021/01/11 16:44:19;;;;;;;;;;;;;;;;;;5045335;28;20008;-69